sensor_id;sensor_type;location;lat;lon;timestamp;pressure;altitude;pressure_sealevel;temperature;humidity
65897;BME280;52677;50.898;10.854;2024-02-15T00:01:08;98709.47;;;7.74;100.00
65897;BME280;52677;50.898;10.854;2024-02-15T00:03:09;98709.84;;;7.73;100.00
65897;BME280;52677;50.898;10.854;2024-02-15T00:05:13;98720.13;;;7.76;100.00
65897;BME280;52677;50.898;10.854;2024-02-15T00:07:16;98713.47;;;7.77;100.00
65897;BME280;52677;50.898;10.854;2024-02-15T00:09:16;98714.75;;;7.79;100.00
65897;BME280;52677;50.898;10.854;2024-02-15T00:11:16;98714.81;;;7.83;100.00
65897;BME280;52677;50.898;10.854;2024-02-15T00:13:17;98715.63;;;7.83;100.00
65897;BME280;52677;50.898;10.854;2024-02-15T00:15:17;98718.47;;;7.87;100.00
65897;BME280;52677;50.898;10.854;2024-02-15T00:17:19;98724.44;;;7.89;100.00
65897;BME280;52677;50.898;10.854;2024-02-15T00:19:19;98718.91;;;7.89;100.00
65897;BME280;52677;50.898;10.854;2024-02-15T00:21:21;98720.59;;;7.94;100.00
65897;BME280;52677;50.898;10.854;2024-02-15T00:23:23;98713.97;;;7.95;100.00
65897;BME280;52677;50.898;10.854;2024-02-15T00:25:23;98712.16;;;8.02;100.00
65897;BME280;52677;50.898;10.854;2024-02-15T00:27:25;98713.41;;;8.05;100.00
65897;BME280;52677;50.898;10.854;2024-02-15T00:29:26;98708.28;;;8.03;100.00
65897;BME280;52677;50.898;10.854;2024-02-15T00:31:28;98714.59;;;8.04;100.00
65897;BME280;52677;50.898;10.854;2024-02-15T00:33:29;98717.78;;;8.06;100.00
65897;BME280;52677;50.898;10.854;2024-02-15T00:35:29;98713.84;;;8.07;100.00
65897;BME280;52677;50.898;10.854;2024-02-15T00:37:29;98719.81;;;8.09;100.00
65897;BME280;52677;50.898;10.854;2024-02-15T00:39:30;98722.94;;;8.07;100.00
65897;BME280;52677;50.898;10.854;2024-02-15T00:41:32;98722.13;;;8.07;100.00
65897;BME280;52677;50.898;10.854;2024-02-15T00:43:36;98723.72;;;8.08;100.00
65897;BME280;52677;50.898;10.854;2024-02-15T00:45:37;98726.47;;;8.08;100.00
65897;BME280;52677;50.898;10.854;2024-02-15T00:47:37;98717.06;;;8.09;100.00
65897;BME280;52677;50.898;10.854;2024-02-15T00:49:38;98721.16;;;8.15;100.00
65897;BME280;52677;50.898;10.854;2024-02-15T00:51:38;98716.06;;;8.17;100.00
65897;BME280;52677;50.898;10.854;2024-02-15T00:53:40;98715.28;;;8.16;100.00
65897;BME280;52677;50.898;10.854;2024-02-15T00:55:40;98715.72;;;8.18;100.00
65897;BME280;52677;50.898;10.854;2024-02-15T00:57:40;98718.22;;;8.24;100.00
65897;BME280;52677;50.898;10.854;2024-02-15T00:59:41;98721.31;;;8.22;100.00
65897;BME280;52677;50.898;10.854;2024-02-15T01:01:41;98715.81;;;8.22;100.00
65897;BME280;52677;50.898;10.854;2024-02-15T01:03:41;98709.88;;;8.20;100.00
65897;BME280;52677;50.898;10.854;2024-02-15T01:05:42;98715.38;;;8.20;100.00
65897;BME280;52677;50.898;10.854;2024-02-15T01:07:42;98717.34;;;8.20;100.00
65897;BME280;52677;50.898;10.854;2024-02-15T01:09:42;98711.34;;;8.17;100.00
65897;BME280;52677;50.898;10.854;2024-02-15T01:11:43;98710.19;;;8.18;100.00
65897;BME280;52677;50.898;10.854;2024-02-15T01:13:43;98715.38;;;8.20;100.00
65897;BME280;52677;50.898;10.854;2024-02-15T01:15:47;98712.97;;;8.18;100.00
65897;BME280;52677;50.898;10.854;2024-02-15T01:17:48;98710.56;;;8.17;100.00
65897;BME280;52677;50.898;10.854;2024-02-15T01:19:48;98711.72;;;8.16;100.00
65897;BME280;52677;50.898;10.854;2024-02-15T01:21:48;98704.97;;;8.13;100.00
65897;BME280;52677;50.898;10.854;2024-02-15T01:23:49;98707.72;;;8.13;100.00
65897;BME280;52677;50.898;10.854;2024-02-15T01:25:50;98700.97;;;8.11;100.00
65897;BME280;52677;50.898;10.854;2024-02-15T01:27:50;98702.66;;;8.15;100.00
65897;BME280;52677;50.898;10.854;2024-02-15T01:29:51;98707.44;;;8.18;100.00
65897;BME280;52677;50.898;10.854;2024-02-15T01:31:52;98710.56;;;8.17;100.00
65897;BME280;52677;50.898;10.854;2024-02-15T01:33:52;98704.69;;;8.18;100.00
65897;BME280;52677;50.898;10.854;2024-02-15T01:35:53;98704.69;;;8.18;100.00
65897;BME280;52677;50.898;10.854;2024-02-15T01:37:53;98708.97;;;8.16;100.00
65897;BME280;52677;50.898;10.854;2024-02-15T01:39:54;98714.47;;;8.16;100.00
65897;BME280;52677;50.898;10.854;2024-02-15T01:41:54;98712.34;;;8.25;100.00
65897;BME280;52677;50.898;10.854;2024-02-15T01:43:56;98706.56;;;8.30;100.00
65897;BME280;52677;50.898;10.854;2024-02-15T01:45:56;98707.94;;;8.36;100.00
65897;BME280;52677;50.898;10.854;2024-02-15T01:47:59;98704.50;;;8.43;100.00
65897;BME280;52677;50.898;10.854;2024-02-15T01:49:59;98693.50;;;8.43;100.00
65897;BME280;52677;50.898;10.854;2024-02-15T01:52:00;98705.78;;;8.46;100.00
65897;BME280;52677;50.898;10.854;2024-02-15T01:54:02;98704.25;;;8.48;100.00
65897;BME280;52677;50.898;10.854;2024-02-15T01:56:04;98709.34;;;8.46;100.00
65897;BME280;52677;50.898;10.854;2024-02-15T01:58:05;98706.13;;;8.44;100.00
65897;BME280;52677;50.898;10.854;2024-02-15T02:00:07;98709.69;;;8.44;100.00
65897;BME280;52677;50.898;10.854;2024-02-15T02:02:10;98701.69;;;8.39;100.00
65897;BME280;52677;50.898;10.854;2024-02-15T02:04:13;98707.19;;;8.39;100.00
65897;BME280;52677;50.898;10.854;2024-02-15T02:06:14;98708.38;;;8.38;100.00
65897;BME280;52677;50.898;10.854;2024-02-15T02:08:14;98706.03;;;8.40;100.00
65897;BME280;52677;50.898;10.854;2024-02-15T02:10:15;98691.63;;;8.47;100.00
65897;BME280;52677;50.898;10.854;2024-02-15T02:12:15;98697.56;;;8.49;100.00
65897;BME280;52677;50.898;10.854;2024-02-15T02:14:18;98691.63;;;8.47;100.00
65897;BME280;52677;50.898;10.854;2024-02-15T02:16:30;98691.63;;;8.47;100.00
65897;BME280;52677;50.898;10.854;2024-02-15T02:18:35;98697.13;;;8.47;100.00
65897;BME280;52677;50.898;10.854;2024-02-15T02:20:35;98696.78;;;8.49;100.00
65897;BME280;52677;50.898;10.854;2024-02-15T02:22:36;98694.44;;;8.51;100.00
65897;BME280;52677;50.898;10.854;2024-02-15T02:25:05;98695.63;;;8.50;100.00
65897;BME280;52677;50.898;10.854;2024-02-15T02:27:07;98691.34;;;8.52;100.00
65897;BME280;52677;50.898;10.854;2024-02-15T02:29:08;98698.09;;;8.55;100.00
65897;BME280;52677;50.898;10.854;2024-02-15T02:31:08;98695.34;;;8.55;100.00
65897;BME280;52677;50.898;10.854;2024-02-15T02:33:12;98698.09;;;8.55;100.00
65897;BME280;52677;50.898;10.854;2024-02-15T02:35:22;98693.47;;;8.59;100.00
65897;BME280;52677;50.898;10.854;2024-02-15T02:37:24;98695.41;;;8.58;100.00
65897;BME280;52677;50.898;10.854;2024-02-15T02:39:24;98690.63;;;8.55;100.00
65897;BME280;52677;50.898;10.854;2024-02-15T02:41:25;98689.41;;;8.53;100.00
65897;BME280;52677;50.898;10.854;2024-02-15T02:43:25;98688.50;;;8.49;100.00
65897;BME280;52677;50.898;10.854;2024-02-15T02:45:26;98693.03;;;8.57;100.00
65897;BME280;52677;50.898;10.854;2024-02-15T02:47:26;98689.47;;;8.56;100.00
65897;BME280;52677;50.898;10.854;2024-02-15T02:49:27;98700.50;;;8.56;100.00
65897;BME280;52677;50.898;10.854;2024-02-15T02:51:27;98688.25;;;8.54;100.00
65897;BME280;52677;50.898;10.854;2024-02-15T02:53:28;98680.66;;;8.51;100.00
65897;BME280;52677;50.898;10.854;2024-02-15T02:55:28;98682.25;;;8.52;100.00
65897;BME280;52677;50.898;10.854;2024-02-15T02:57:29;98684.69;;;8.53;100.00
65897;BME280;52677;50.898;10.854;2024-02-15T02:59:34;98683.16;;;8.56;100.00
65897;BME280;52677;50.898;10.854;2024-02-15T03:01:34;98686.34;;;8.58;100.00
65897;BME280;52677;50.898;10.854;2024-02-15T03:03:35;98689.19;;;8.61;100.00
65897;BME280;52677;50.898;10.854;2024-02-15T03:05:35;98691.97;;;8.61;100.00
65897;BME280;52677;50.898;10.854;2024-02-15T03:07:36;98688.47;;;8.64;100.00
65897;BME280;52677;50.898;10.854;2024-02-15T03:09:37;98699.56;;;8.68;100.00
65897;BME280;52677;50.898;10.854;2024-02-15T03:11:37;98689.78;;;8.70;100.00
65897;BME280;52677;50.898;10.854;2024-02-15T03:13:38;98696.91;;;8.71;100.00
65897;BME280;52677;50.898;10.854;2024-02-15T03:15:38;98689.44;;;8.72;100.00
65897;BME280;52677;50.898;10.854;2024-02-15T03:17:45;98698.66;;;8.80;100.00
65897;BME280;52677;50.898;10.854;2024-02-15T03:19:46;98705.84;;;8.84;100.00
65897;BME280;52677;50.898;10.854;2024-02-15T03:21:48;98703.19;;;8.88;100.00
65897;BME280;52677;50.898;10.854;2024-02-15T03:23:49;98694.47;;;8.86;100.00
65897;BME280;52677;50.898;10.854;2024-02-15T03:25:49;98697.13;;;8.82;100.00
65897;BME280;52677;50.898;10.854;2024-02-15T03:27:54;98701.06;;;8.81;100.00
65897;BME280;52677;50.898;10.854;2024-02-15T03:29:55;98705.41;;;8.82;100.00
65897;BME280;52677;50.898;10.854;2024-02-15T03:31:57;98694.38;;;8.82;100.00
65897;BME280;52677;50.898;10.854;2024-02-15T03:33:57;98692.72;;;8.78;100.00
65897;BME280;52677;50.898;10.854;2024-02-15T03:35:59;98692.63;;;8.74;100.00
65897;BME280;52677;50.898;10.854;2024-02-15T03:38:00;98694.47;;;8.86;100.00
65897;BME280;52677;50.898;10.854;2024-02-15T03:40:01;98698.72;;;8.83;100.00
65897;BME280;52677;50.898;10.854;2024-02-15T03:42:01;98690.44;;;8.83;100.00
65897;BME280;52677;50.898;10.854;2024-02-15T03:44:02;98696.78;;;8.84;100.00
65897;BME280;52677;50.898;10.854;2024-02-15T03:46:02;98692.84;;;8.85;100.00
65897;BME280;52677;50.898;10.854;2024-02-15T03:48:03;98692.03;;;8.84;100.00
65897;BME280;52677;50.898;10.854;2024-02-15T03:50:05;98694.00;;;8.84;100.00
65897;BME280;52677;50.898;10.854;2024-02-15T03:52:06;98680.88;;;8.77;100.00
65897;BME280;52677;50.898;10.854;2024-02-15T03:54:06;98684.88;;;8.80;100.00
65897;BME280;52677;50.898;10.854;2024-02-15T03:56:07;98699.03;;;8.78;100.00
65897;BME280;52677;50.898;10.854;2024-02-15T03:58:08;98691.91;;;8.77;100.00
65897;BME280;52677;50.898;10.854;2024-02-15T04:00:10;98704.56;;;8.78;100.00
65897;BME280;52677;50.898;10.854;2024-02-15T04:02:11;98708.00;;;8.75;100.00
65897;BME280;52677;50.898;10.854;2024-02-15T04:04:14;98700.09;;;8.73;100.00
65897;BME280;52677;50.898;10.854;2024-02-15T04:06:15;98708.81;;;8.76;100.00
65897;BME280;52677;50.898;10.854;2024-02-15T04:08:15;98709.59;;;8.76;100.00
65897;BME280;52677;50.898;10.854;2024-02-15T04:10:16;98703.38;;;8.79;100.00
65897;BME280;52677;50.898;10.854;2024-02-15T04:12:18;98709.69;;;8.80;100.00
65897;BME280;52677;50.898;10.854;2024-02-15T04:14:19;98705.78;;;8.81;100.00
65897;BME280;52677;50.898;10.854;2024-02-15T04:16:19;98696.34;;;8.82;100.00
65897;BME280;52677;50.898;10.854;2024-02-15T04:18:20;98701.78;;;8.78;100.00
65897;BME280;52677;50.898;10.854;2024-02-15T04:20:20;98703.81;;;8.81;100.00
65897;BME280;52677;50.898;10.854;2024-02-15T04:22:21;98701.84;;;8.82;100.00
65897;BME280;52677;50.898;10.854;2024-02-15T04:24:21;98709.34;;;8.81;100.00
65897;BME280;52677;50.898;10.854;2024-02-15T04:26:23;98702.59;;;8.79;100.00
65897;BME280;52677;50.898;10.854;2024-02-15T04:28:26;98707.63;;;8.77;100.00
65897;BME280;52677;50.898;10.854;2024-02-15T04:30:27;98704.44;;;8.75;100.00
65897;BME280;52677;50.898;10.854;2024-02-15T04:32:27;98704.38;;;8.71;100.00
65897;BME280;52677;50.898;10.854;2024-02-15T04:34:29;98707.84;;;8.68;100.00
65897;BME280;52677;50.898;10.854;2024-02-15T04:36:30;98705.81;;;8.65;100.00
65897;BME280;52677;50.898;10.854;2024-02-15T04:38:34;98708.84;;;8.60;100.00
65897;BME280;52677;50.898;10.854;2024-02-15T04:40:34;98706.38;;;8.55;100.00
65897;BME280;52677;50.898;10.854;2024-02-15T04:42:36;98704.31;;;8.52;100.00
65897;BME280;52677;50.898;10.854;2024-02-15T04:44:39;98698.31;;;8.46;100.00
65897;BME280;52677;50.898;10.854;2024-02-15T04:46:40;98701.31;;;8.41;100.00
65897;BME280;52677;50.898;10.854;2024-02-15T04:48:42;98704.00;;;8.37;100.00
65897;BME280;52677;50.898;10.854;2024-02-15T04:50:43;98698.50;;;8.37;100.00
65897;BME280;52677;50.898;10.854;2024-02-15T04:52:43;98693.78;;;8.38;100.00
65897;BME280;52677;50.898;10.854;2024-02-15T04:54:45;98699.28;;;8.38;100.00
65897;BME280;52677;50.898;10.854;2024-02-15T04:56:45;98702.47;;;8.40;100.00
65897;BME280;52677;50.898;10.854;2024-02-15T04:58:46;98707.56;;;8.38;100.00
65897;BME280;52677;50.898;10.854;2024-02-15T05:00:47;98700.00;;;8.35;100.00
65897;BME280;52677;50.898;10.854;2024-02-15T05:02:52;98705.16;;;8.36;100.00
65897;BME280;52677;50.898;10.854;2024-02-15T05:04:53;98696.09;;;8.36;100.00
65897;BME280;52677;50.898;10.854;2024-02-15T05:06:56;98706.31;;;8.35;100.00
65897;BME280;52677;50.898;10.854;2024-02-15T05:08:56;98710.19;;;8.34;100.00
65897;BME280;52677;50.898;10.854;2024-02-15T05:10:57;98703.53;;;8.35;100.00
65897;BME280;52677;50.898;10.854;2024-02-15T05:12:58;98705.69;;;8.42;100.00
65897;BME280;52677;50.898;10.854;2024-02-15T05:15:01;98715.66;;;8.47;100.00
65897;BME280;52677;50.898;10.854;2024-02-15T05:17:02;98706.28;;;8.51;100.00
65897;BME280;52677;50.898;10.854;2024-02-15T05:19:02;98707.88;;;8.52;100.00
65897;BME280;52677;50.898;10.854;2024-02-15T05:21:04;98710.63;;;8.52;100.00
65897;BME280;52677;50.898;10.854;2024-02-15T05:23:04;98708.03;;;8.59;100.00
65897;BME280;52677;50.898;10.854;2024-02-15T05:25:06;98722.44;;;8.68;100.00
65897;BME280;52677;50.898;10.854;2024-02-15T05:27:07;98717.75;;;8.69;100.00
65897;BME280;52677;50.898;10.854;2024-02-15T05:29:11;98717.28;;;8.67;100.00
65897;BME280;52677;50.898;10.854;2024-02-15T05:31:17;98717.28;;;8.67;100.00
65897;BME280;52677;50.898;10.854;2024-02-15T05:33:20;98720.03;;;8.67;100.00
65897;BME280;52677;50.898;10.854;2024-02-15T05:35:21;98715.69;;;8.66;100.00
65897;BME280;52677;50.898;10.854;2024-02-15T05:37:21;98719.59;;;8.65;100.00
65897;BME280;52677;50.898;10.854;2024-02-15T05:39:23;98720.84;;;8.67;100.00
65897;BME280;52677;50.898;10.854;2024-02-15T05:41:23;98721.31;;;8.69;100.00
65897;BME280;52677;50.898;10.854;2024-02-15T05:43:24;98718.97;;;8.71;100.00
65897;BME280;52677;50.898;10.854;2024-02-15T05:47:25;98715.06;;;8.72;100.00
65897;BME280;52677;50.898;10.854;2024-02-15T05:49:26;98709.47;;;8.69;100.00
65897;BME280;52677;50.898;10.854;2024-02-15T05:51:26;98714.25;;;8.72;100.00
65897;BME280;52677;50.898;10.854;2024-02-15T05:53:27;98712.72;;;8.75;100.00
65897;BME280;52677;50.898;10.854;2024-02-15T05:55:28;98711.94;;;8.74;100.00
65897;BME280;52677;50.898;10.854;2024-02-15T05:57:31;98707.56;;;8.73;100.00
65897;BME280;52677;50.898;10.854;2024-02-15T05:59:33;98711.88;;;8.70;100.00
65897;BME280;52677;50.898;10.854;2024-02-15T06:01:33;98706.06;;;8.76;100.00
65897;BME280;52677;50.898;10.854;2024-02-15T06:03:34;98708.47;;;8.77;100.00
65897;BME280;52677;50.898;10.854;2024-02-15T06:05:38;98715.59;;;8.78;100.00
65897;BME280;52677;50.898;10.854;2024-02-15T06:07:38;98707.63;;;8.77;100.00
65897;BME280;52677;50.898;10.854;2024-02-15T06:09:39;98710.50;;;8.80;100.00
65897;BME280;52677;50.898;10.854;2024-02-15T06:11:40;98716.44;;;8.82;100.00
65897;BME280;52677;50.898;10.854;2024-02-15T06:13:40;98701.50;;;8.83;100.00
65897;BME280;52677;50.898;10.854;2024-02-15T06:15:41;98711.47;;;8.88;100.00
65897;BME280;52677;50.898;10.854;2024-02-15T06:17:42;98710.03;;;8.94;100.00
65897;BME280;52677;50.898;10.854;2024-02-15T06:19:45;98710.03;;;8.94;100.00
65897;BME280;52677;50.898;10.854;2024-02-15T06:21:45;98720.69;;;8.95;100.00
65897;BME280;52677;50.898;10.854;2024-02-15T06:23:46;98721.50;;;8.96;100.00
65897;BME280;52677;50.898;10.854;2024-02-15T06:25:51;98719.53;;;8.96;100.00
65897;BME280;52677;50.898;10.854;2024-02-15T06:27:53;98715.97;;;8.96;100.00
65897;BME280;52677;50.898;10.854;2024-02-15T06:29:58;98724.16;;;8.92;100.00
65897;BME280;52677;50.898;10.854;2024-02-15T06:32:17;98734.84;;;8.94;100.00
65897;BME280;52677;50.898;10.854;2024-02-15T06:34:36;98725.03;;;8.96;100.00
65897;BME280;52677;50.898;10.854;2024-02-15T06:36:56;98722.28;;;8.96;100.00
65897;BME280;52677;50.898;10.854;2024-02-15T06:39:15;98731.00;;;8.98;100.00
65897;BME280;52677;50.898;10.854;2024-02-15T06:41:34;98728.22;;;8.98;100.00
65897;BME280;52677;50.898;10.854;2024-02-15T06:43:35;98744.00;;;8.98;100.00
65897;BME280;52677;50.898;10.854;2024-02-15T06:45:35;98738.03;;;8.96;100.00
65897;BME280;52677;50.898;10.854;2024-02-15T06:47:37;98743.56;;;8.96;100.00
65897;BME280;52677;50.898;10.854;2024-02-15T06:49:38;98740.81;;;8.96;100.00
65897;BME280;52677;50.898;10.854;2024-02-15T06:51:43;98740.00;;;8.95;100.00
65897;BME280;52677;50.898;10.854;2024-02-15T06:53:43;98739.13;;;8.91;100.00
65897;BME280;52677;50.898;10.854;2024-02-15T06:55:44;98745.00;;;8.90;100.00
65897;BME280;52677;50.898;10.854;2024-02-15T06:57:44;98742.16;;;8.86;100.00
65897;BME280;52677;50.898;10.854;2024-02-15T06:59:46;98749.00;;;8.92;100.00
65897;BME280;52677;50.898;10.854;2024-02-15T07:01:47;98740.00;;;8.95;100.00
65897;BME280;52677;50.898;10.854;2024-02-15T07:03:47;98743.25;;;9.01;100.00
65897;BME280;52677;50.898;10.854;2024-02-15T07:05:48;98744.06;;;9.01;100.00
65897;BME280;52677;50.898;10.854;2024-02-15T07:07:49;98740.66;;;9.08;100.00
65897;BME280;52677;50.898;10.854;2024-02-15T07:09:50;98738.44;;;9.14;100.00
65897;BME280;52677;50.898;10.854;2024-02-15T07:11:51;98741.97;;;9.14;100.00
65897;BME280;52677;50.898;10.854;2024-02-15T07:13:51;98742.03;;;9.18;100.00
65897;BME280;52677;50.898;10.854;2024-02-15T07:15:54;98742.84;;;9.18;100.00
65897;BME280;52677;50.898;10.854;2024-02-15T07:17:55;98740.53;;;9.20;100.00
65897;BME280;52677;50.898;10.854;2024-02-15T07:19:55;98740.91;;;9.19;100.00
65897;BME280;52677;50.898;10.854;2024-02-15T07:21:55;98740.91;;;9.19;100.00
65897;BME280;52677;50.898;10.854;2024-02-15T07:23:57;98732.69;;;9.22;100.00
65897;BME280;52677;50.898;10.854;2024-02-15T07:25:58;98737.41;;;9.22;100.00
65897;BME280;52677;50.898;10.854;2024-02-15T07:27:59;98735.44;;;9.22;100.00
65897;BME280;52677;50.898;10.854;2024-02-15T07:29:59;98738.63;;;9.24;100.00
65897;BME280;52677;50.898;10.854;2024-02-15T07:32:03;98726.59;;;9.33;100.00
65897;BME280;52677;50.898;10.854;2024-02-15T07:34:04;98733.00;;;9.37;100.00
65897;BME280;52677;50.898;10.854;2024-02-15T07:36:05;98720.13;;;9.44;100.00
65897;BME280;52677;50.898;10.854;2024-02-15T07:38:05;98730.50;;;9.51;100.00
65897;BME280;52677;50.898;10.854;2024-02-15T07:40:06;98731.75;;;9.53;100.00
65897;BME280;52677;50.898;10.854;2024-02-15T07:42:08;98732.13;;;9.52;100.00
65897;BME280;52677;50.898;10.854;2024-02-15T07:44:09;98737.63;;;9.52;100.00
65897;BME280;52677;50.898;10.854;2024-02-15T07:46:12;98740.84;;;9.54;100.00
65897;BME280;52677;50.898;10.854;2024-02-15T07:48:13;98739.72;;;9.58;100.00
65897;BME280;52677;50.898;10.854;2024-02-15T07:50:17;98742.56;;;9.62;100.00
65897;BME280;52677;50.898;10.854;2024-02-15T07:52:20;98752.50;;;9.67;100.00
65897;BME280;52677;50.898;10.854;2024-02-15T07:54:23;98750.91;;;9.66;100.00
65897;BME280;52677;50.898;10.854;2024-02-15T07:56:23;98756.53;;;9.69;100.00
65897;BME280;52677;50.898;10.854;2024-02-15T07:58:23;98748.22;;;9.69;100.00
65897;BME280;52677;50.898;10.854;2024-02-15T08:00:24;98746.75;;;9.75;100.00
65897;BME280;52677;50.898;10.854;2024-02-15T08:02:27;98748.81;;;9.78;100.00
65897;BME280;52677;50.898;10.854;2024-02-15T08:04:28;98742.94;;;9.83;100.00
65897;BME280;52677;50.898;10.854;2024-02-15T08:06:28;98742.25;;;9.87;100.00
65897;BME280;52677;50.898;10.854;2024-02-15T08:08:34;98737.94;;;9.89;100.00
65897;BME280;52677;50.898;10.854;2024-02-15T08:10:38;98732.03;;;9.91;100.00
65897;BME280;52677;50.898;10.854;2024-02-15T08:12:41;98736.75;;;9.90;100.00
65897;BME280;52677;50.898;10.854;2024-02-15T08:14:41;98736.09;;;9.97;100.00
65897;BME280;52677;50.898;10.854;2024-02-15T08:16:42;98735.34;;;10.00;100.00
65897;BME280;52677;50.898;10.854;2024-02-15T08:18:43;98723.94;;;10.01;100.00
65897;BME280;52677;50.898;10.854;2024-02-15T08:20:45;98725.59;;;10.06;100.00
65897;BME280;52677;50.898;10.854;2024-02-15T08:22:45;98723.25;;;10.08;100.00
65897;BME280;52677;50.898;10.854;2024-02-15T08:24:45;98720.25;;;10.17;100.00
65897;BME280;52677;50.898;10.854;2024-02-15T08:26:47;98720.41;;;10.24;100.00
65897;BME280;52677;50.898;10.854;2024-02-15T08:28:48;98707.06;;;10.29;100.00
65897;BME280;52677;50.898;10.854;2024-02-15T08:30:48;98707.66;;;10.42;100.00
65897;BME280;52677;50.898;10.854;2024-02-15T08:32:48;98706.94;;;10.45;100.00
65897;BME280;52677;50.898;10.854;2024-02-15T08:34:49;98714.53;;;10.52;100.00
65897;BME280;52677;50.898;10.854;2024-02-15T08:36:50;98710.22;;;10.54;100.00
65897;BME280;52677;50.898;10.854;2024-02-15T08:38:52;98702.72;;;10.55;100.00
65897;BME280;52677;50.898;10.854;2024-02-15T08:40:52;98707.94;;;10.60;100.00
65897;BME280;52677;50.898;10.854;2024-02-15T08:42:52;98708.75;;;10.60;100.00
65897;BME280;52677;50.898;10.854;2024-02-15T08:44:53;98711.94;;;10.62;100.00
65897;BME280;52677;50.898;10.854;2024-02-15T08:46:53;98721.81;;;10.63;100.00
65897;BME280;52677;50.898;10.854;2024-02-15T08:48:53;98719.00;;;10.60;100.00
65897;BME280;52677;50.898;10.854;2024-02-15T08:50:54;98724.59;;;10.63;100.00
65897;BME280;52677;50.898;10.854;2024-02-15T08:52:54;98723.00;;;10.62;100.00
65897;BME280;52677;50.898;10.854;2024-02-15T08:54:55;98729.28;;;10.59;100.00
65897;BME280;52677;50.898;10.854;2024-02-15T08:56:57;98726.88;;;10.58;100.00
65897;BME280;52677;50.898;10.854;2024-02-15T08:58:57;98733.19;;;10.58;100.00
65897;BME280;52677;50.898;10.854;2024-02-15T09:00:58;98730.06;;;10.60;100.00
65897;BME280;52677;50.898;10.854;2024-02-15T09:02:58;98730.88;;;10.60;100.00
65897;BME280;52677;50.898;10.854;2024-02-15T09:04:59;98732.09;;;10.63;100.00
65897;BME280;52677;50.898;10.854;2024-02-15T09:06:59;98726.94;;;10.61;100.00
65897;BME280;52677;50.898;10.854;2024-02-15T09:09:04;98725.81;;;10.66;100.00
65897;BME280;52677;50.898;10.854;2024-02-15T09:11:04;98734.91;;;10.66;100.00
65897;BME280;52677;50.898;10.854;2024-02-15T09:13:04;98731.72;;;10.64;100.00
65897;BME280;52677;50.898;10.854;2024-02-15T09:15:09;98733.38;;;10.69;100.00
65897;BME280;52677;50.898;10.854;2024-02-15T09:17:13;98726.59;;;10.66;100.00
65897;BME280;52677;50.898;10.854;2024-02-15T09:19:14;98733.78;;;10.71;100.00
65897;BME280;52677;50.898;10.854;2024-02-15T09:21:14;98736.56;;;10.71;100.00
65897;BME280;52677;50.898;10.854;2024-02-15T09:23:15;98729.44;;;10.70;100.00
65897;BME280;52677;50.898;10.854;2024-02-15T09:25:15;98739.75;;;10.73;100.00
65897;BME280;52677;50.898;10.854;2024-02-15T09:27:16;98743.84;;;10.83;100.00
65897;BME280;52677;50.898;10.854;2024-02-15T09:29:16;98739.16;;;10.87;100.00
65897;BME280;52677;50.898;10.854;2024-02-15T09:31:17;98745.50;;;10.87;100.00
65897;BME280;52677;50.898;10.854;2024-02-15T09:33:21;98737.13;;;10.84;100.00
65897;BME280;52677;50.898;10.854;2024-02-15T09:35:22;98741.53;;;10.85;100.00
65897;BME280;52677;50.898;10.854;2024-02-15T09:37:22;98732.75;;;10.83;100.00
65897;BME280;52677;50.898;10.854;2024-02-15T09:39:24;98735.97;;;10.85;100.00
65897;BME280;52677;50.898;10.854;2024-02-15T09:41:24;98727.75;;;10.92;100.00
65897;BME280;52677;50.898;10.854;2024-02-15T09:43:25;98727.44;;;10.97;100.00
65897;BME280;52677;50.898;10.854;2024-02-15T09:45:26;98731.06;;;11.01;100.00
65897;BME280;52677;50.898;10.854;2024-02-15T09:47:36;98720.81;;;11.05;100.00
65897;BME280;52677;50.898;10.854;2024-02-15T09:49:37;98728.03;;;11.10;100.00
65897;BME280;52677;50.898;10.854;2024-02-15T09:51:40;98713.78;;;11.11;100.00
65897;BME280;52677;50.898;10.854;2024-02-15T09:53:43;98720.16;;;11.15;100.00
65897;BME280;52677;50.898;10.854;2024-02-15T09:55:44;98719.78;;;11.17;100.00
65897;BME280;52677;50.898;10.854;2024-02-15T09:57:45;98719.84;;;11.20;100.00
65897;BME280;52677;50.898;10.854;2024-02-15T09:59:49;98722.22;;;11.22;100.00
65897;BME280;52677;50.898;10.854;2024-02-15T10:01:50;98719.09;;;11.23;100.00
65897;BME280;52677;50.898;10.854;2024-02-15T10:03:52;98716.38;;;11.27;100.00
65897;BME280;52677;50.898;10.854;2024-02-15T10:05:52;98720.38;;;11.33;100.00
65897;BME280;52677;50.898;10.854;2024-02-15T10:07:52;98709.78;;;11.39;100.00
65897;BME280;52677;50.898;10.854;2024-02-15T10:09:54;98720.16;;;11.45;100.00
65897;BME280;52677;50.898;10.854;2024-02-15T10:11:59;98714.63;;;11.49;100.00
65897;BME280;52677;50.898;10.854;2024-02-15T10:14:10;98721.84;;;11.57;100.00
65897;BME280;52677;50.898;10.854;2024-02-15T10:16:20;98720.72;;;11.62;100.00
65897;BME280;52677;50.898;10.854;2024-02-15T10:18:25;98723.13;;;11.63;100.00
65897;BME280;52677;50.898;10.854;2024-02-15T10:20:25;98723.13;;;11.63;100.00
65897;BME280;52677;50.898;10.854;2024-02-15T10:22:26;98720.31;;;11.60;100.00
65897;BME280;52677;50.898;10.854;2024-02-15T10:24:26;98711.63;;;11.61;100.00
65897;BME280;52677;50.898;10.854;2024-02-15T10:26:27;98707.69;;;11.66;100.00
65897;BME280;52677;50.898;10.854;2024-02-15T10:28:29;98717.25;;;11.68;100.00
65897;BME280;52677;50.898;10.854;2024-02-15T10:30:30;98708.63;;;11.77;100.00
65897;BME280;52677;50.898;10.854;2024-02-15T10:32:35;98700.38;;;11.80;100.00
65897;BME280;52677;50.898;10.854;2024-02-15T10:34:43;98694.50;;;11.86;100.00
65897;BME280;52677;50.898;10.854;2024-02-15T10:36:45;98692.16;;;11.91;100.00